sensor_id;sensor_type;location;lat;lon;timestamp;pressure;altitude;pressure_sealevel;temperature;humidity
62995;BME280;49086;52.300;4.850;2022-09-03T00:02:03;53176.94;;;-146.41;40.55
62995;BME280;49086;52.300;4.850;2022-09-03T00:08:09;53117.16;;;-146.41;40.95
62995;BME280;49086;52.300;4.850;2022-09-03T00:14:06;53168.97;;;-146.41;41.19
62995;BME280;49086;52.300;4.850;2022-09-03T00:16:49;53157.03;;;-146.41;41.35
62995;BME280;49086;52.300;4.850;2022-09-03T00:19:32;53153.03;;;-146.41;41.60
62995;BME280;49086;52.300;4.850;2022-09-03T00:22:03;53157.03;;;-146.41;41.32
62995;BME280;49086;52.300;4.850;2022-09-03T00:24:35;53153.03;;;-146.41;41.51
62995;BME280;49086;52.300;4.850;2022-09-03T00:27:05;53149.03;;;-146.41;41.53
62995;BME280;49086;52.300;4.850;2022-09-03T00:29:38;53178.94;;;-146.41;41.24
62995;BME280;49086;52.300;4.850;2022-09-03T00:32:18;53135.09;;;-146.41;41.71
62995;BME280;49086;52.300;4.850;2022-09-03T00:34:49;53147.06;;;-146.41;41.51
62995;BME280;49086;52.300;4.850;2022-09-03T00:37:17;53147.06;;;-146.41;41.55
62995;BME280;49086;52.300;4.850;2022-09-03T00:39:43;53167.00;;;-146.41;41.85
62995;BME280;49086;52.300;4.850;2022-09-03T00:48:22;53157.03;;;-146.41;41.71
62995;BME280;49086;52.300;4.850;2022-09-03T00:56:54;53147.06;;;-146.41;41.79
62995;BME280;49086;52.300;4.850;2022-09-03T01:00:00;53147.06;;;-146.41;42.03
62995;BME280;49086;52.300;4.850;2022-09-03T01:20:06;53161.00;;;-146.41;43.03
62995;BME280;49086;52.300;4.850;2022-09-03T01:26:07;53190.91;;;-146.41;43.17
62995;BME280;49086;52.300;4.850;2022-09-03T01:36:57;53167.00;;;-146.41;43.93
62995;BME280;49086;52.300;4.850;2022-09-03T01:39:36;53170.97;;;-146.41;43.98
62995;BME280;49086;52.300;4.850;2022-09-03T01:42:24;53151.03;;;-146.41;45.39
62995;BME280;49086;52.300;4.850;2022-09-03T01:45:39;53170.97;;;-146.41;44.41
62995;BME280;49086;52.300;4.850;2022-09-03T01:51:10;53176.94;;;-146.41;45.16
62995;BME280;49086;52.300;4.850;2022-09-03T02:00:07;53178.94;;;-146.41;44.65
62995;BME280;49086;52.300;4.850;2022-09-03T02:02:27;53165.00;;;-146.41;44.95
62995;BME280;49086;52.300;4.850;2022-09-03T02:05:14;53186.91;;;-146.41;44.99
62995;BME280;49086;52.300;4.850;2022-09-03T02:07:47;53174.97;;;-146.41;44.87
62995;BME280;49086;52.300;4.850;2022-09-03T02:10:21;53184.94;;;-146.41;45.03
62995;BME280;49086;52.300;4.850;2022-09-03T02:12:54;53155.03;;;-146.41;45.31
62995;BME280;49086;52.300;4.850;2022-09-03T02:15:25;53159.00;;;-146.41;45.26
62995;BME280;49086;52.300;4.850;2022-09-03T02:17:57;53172.97;;;-146.41;45.26
62995;BME280;49086;52.300;4.850;2022-09-03T02:20:28;53202.88;;;-146.41;45.25
62995;BME280;49086;52.300;4.850;2022-09-03T02:22:57;53163.00;;;-146.41;45.23
62995;BME280;49086;52.300;4.850;2022-09-03T02:25:29;53155.03;;;-146.41;45.32
62995;BME280;49086;52.300;4.850;2022-09-03T02:27:58;53214.81;;;-146.41;45.33
62995;BME280;49086;52.300;4.850;2022-09-03T02:30:30;53182.94;;;-146.41;45.55
62995;BME280;49086;52.300;4.850;2022-09-03T02:32:56;53147.06;;;-146.41;45.67
62995;BME280;49086;52.300;4.850;2022-09-03T02:35:23;53172.97;;;-146.41;45.99
62995;BME280;49086;52.300;4.850;2022-09-03T02:37:53;53157.03;;;-146.41;45.55
62995;BME280;49086;52.300;4.850;2022-09-03T02:40:21;53161.00;;;-146.41;45.68
62995;BME280;49086;52.300;4.850;2022-09-03T02:42:46;53208.84;;;-146.41;45.33
62995;BME280;49086;52.300;4.850;2022-09-03T02:45:46;53149.03;;;-146.41;46.09
62995;BME280;49086;52.300;4.850;2022-09-03T02:48:19;53196.88;;;-146.41;46.18
62995;BME280;49086;52.300;4.850;2022-09-03T02:50:46;53174.97;;;-146.41;46.31
62995;BME280;49086;52.300;4.850;2022-09-03T02:53:14;53167.00;;;-146.41;46.60
62995;BME280;49086;52.300;4.850;2022-09-03T02:55:42;53159.00;;;-146.41;46.45
62995;BME280;49086;52.300;4.850;2022-09-03T02:58:07;53218.81;;;-146.41;46.78
62995;BME280;49086;52.300;4.850;2022-09-03T03:00:35;53180.94;;;-146.41;46.63
62995;BME280;49086;52.300;4.850;2022-09-03T03:03:03;53210.84;;;-146.41;46.81
62995;BME280;49086;52.300;4.850;2022-09-03T03:05:51;53194.88;;;-146.41;46.94
62995;BME280;49086;52.300;4.850;2022-09-03T03:08:19;53200.88;;;-146.41;46.70
62995;BME280;49086;52.300;4.850;2022-09-03T03:10:55;53176.94;;;-146.41;46.38
62995;BME280;49086;52.300;4.850;2022-09-03T03:13:28;53218.81;;;-146.41;46.74
62995;BME280;49086;52.300;4.850;2022-09-03T03:16:12;53159.00;;;-146.41;46.83
62995;BME280;49086;52.300;4.850;2022-09-03T03:18:39;53170.97;;;-146.41;47.06
62995;BME280;49086;52.300;4.850;2022-09-03T03:21:10;53198.88;;;-146.41;47.14
62995;BME280;49086;52.300;4.850;2022-09-03T03:23:38;53196.88;;;-146.41;46.74
62995;BME280;49086;52.300;4.850;2022-09-03T03:26:08;53178.94;;;-146.41;46.87
62995;BME280;49086;52.300;4.850;2022-09-03T03:28:37;53206.84;;;-146.41;47.35
62995;BME280;49086;52.300;4.850;2022-09-03T03:31:27;53161.00;;;-146.41;47.35
62995;BME280;49086;52.300;4.850;2022-09-03T03:33:58;53188.91;;;-146.41;47.26
62995;BME280;49086;52.300;4.850;2022-09-03T03:36:36;53190.91;;;-146.41;47.42
62995;BME280;49086;52.300;4.850;2022-09-03T03:39:01;53180.94;;;-146.41;47.49
62995;BME280;49086;52.300;4.850;2022-09-03T03:41:32;53155.03;;;-146.41;47.42
62995;BME280;49086;52.300;4.850;2022-09-03T03:44:06;53202.88;;;-146.41;47.71
62995;BME280;49086;52.300;4.850;2022-09-03T03:46:36;53214.81;;;-146.41;47.56
62995;BME280;49086;52.300;4.850;2022-09-03T03:49:02;53206.84;;;-146.41;47.43
62995;BME280;49086;52.300;4.850;2022-09-03T03:51:34;53186.91;;;-146.41;47.73
62995;BME280;49086;52.300;4.850;2022-09-03T03:53:59;53182.94;;;-146.41;47.72
62995;BME280;49086;52.300;4.850;2022-09-03T03:56:26;53163.00;;;-146.41;47.93
62995;BME280;49086;52.300;4.850;2022-09-03T03:58:53;53198.88;;;-146.41;47.99
62995;BME280;49086;52.300;4.850;2022-09-03T04:01:23;53214.81;;;-146.41;48.25
62995;BME280;49086;52.300;4.850;2022-09-03T04:03:56;53200.88;;;-146.41;47.86
62995;BME280;49086;52.300;4.850;2022-09-03T04:06:27;53198.88;;;-146.41;48.33
62995;BME280;49086;52.300;4.850;2022-09-03T04:08:52;53200.88;;;-146.41;48.25
62995;BME280;49086;52.300;4.850;2022-09-03T04:11:23;53186.91;;;-146.41;48.99
62995;BME280;49086;52.300;4.850;2022-09-03T04:13:53;53220.81;;;-146.41;49.15
62995;BME280;49086;52.300;4.850;2022-09-03T04:16:25;53216.81;;;-146.41;48.78
62995;BME280;49086;52.300;4.850;2022-09-03T04:18:53;53226.78;;;-146.41;48.62
62995;BME280;49086;52.300;4.850;2022-09-03T04:21:28;53186.91;;;-146.41;48.67
62995;BME280;49086;52.300;4.850;2022-09-03T04:23:57;53208.84;;;-146.41;48.87
62995;BME280;49086;52.300;4.850;2022-09-03T04:26:27;53214.81;;;-146.41;48.59
62995;BME280;49086;52.300;4.850;2022-09-03T04:29:02;53202.88;;;-146.41;48.73
62995;BME280;49086;52.300;4.850;2022-09-03T04:31:28;53178.94;;;-146.41;49.11
62995;BME280;49086;52.300;4.850;2022-09-03T04:33:53;53198.88;;;-146.41;48.63
62995;BME280;49086;52.300;4.850;2022-09-03T04:36:23;53214.81;;;-146.41;48.69
62995;BME280;49086;52.300;4.850;2022-09-03T04:38:51;53174.97;;;-146.41;48.80
62995;BME280;49086;52.300;4.850;2022-09-03T04:41:23;53188.91;;;-146.41;48.94
62995;BME280;49086;52.300;4.850;2022-09-03T04:43:51;53190.91;;;-146.41;48.67
62995;BME280;49086;52.300;4.850;2022-09-03T04:46:18;53218.81;;;-146.41;49.14
62995;BME280;49086;52.300;4.850;2022-09-03T04:48:48;53222.78;;;-146.41;49.01
62995;BME280;49086;52.300;4.850;2022-09-03T04:51:18;53214.81;;;-146.41;49.39
62995;BME280;49086;52.300;4.850;2022-09-03T04:53:45;53196.88;;;-146.41;49.68
62995;BME280;49086;52.300;4.850;2022-09-03T04:56:19;53222.78;;;-146.41;49.64
62995;BME280;49086;52.300;4.850;2022-09-03T04:58:46;53200.88;;;-146.41;49.47
62995;BME280;49086;52.300;4.850;2022-09-03T05:01:19;53188.91;;;-146.41;49.57
62995;BME280;49086;52.300;4.850;2022-09-03T05:03:46;53244.72;;;-146.41;49.73
62995;BME280;49086;52.300;4.850;2022-09-03T05:06:14;53206.84;;;-146.41;49.92
62995;BME280;49086;52.300;4.850;2022-09-03T05:08:48;53202.88;;;-146.41;49.75
62995;BME280;49086;52.300;4.850;2022-09-03T05:11:16;53224.78;;;-146.41;49.71
62995;BME280;49086;52.300;4.850;2022-09-03T05:13:57;53200.88;;;-146.41;49.81
62995;BME280;49086;52.300;4.850;2022-09-03T05:16:26;53238.75;;;-146.41;49.89
62995;BME280;49086;52.300;4.850;2022-09-03T05:18:53;53198.88;;;-146.41;49.87
62995;BME280;49086;52.300;4.850;2022-09-03T05:21:20;53165.00;;;-146.41;49.92
62995;BME280;49086;52.300;4.850;2022-09-03T05:23:49;53226.78;;;-146.41;50.31
62995;BME280;49086;52.300;4.850;2022-09-03T05:26:20;53210.84;;;-146.41;50.17
62995;BME280;49086;52.300;4.850;2022-09-03T05:29:01;53216.81;;;-146.41;49.64
62995;BME280;49086;52.300;4.850;2022-09-03T05:31:29;53226.78;;;-146.41;50.36
62995;BME280;49086;52.300;4.850;2022-09-03T05:33:58;53210.84;;;-146.41;50.25
62995;BME280;49086;52.300;4.850;2022-09-03T05:36:33;53202.88;;;-146.41;49.96
62995;BME280;49086;52.300;4.850;2022-09-03T05:39:02;53190.91;;;-146.41;49.76
62995;BME280;49086;52.300;4.850;2022-09-03T05:41:28;53242.72;;;-146.41;49.77
62995;BME280;49086;52.300;4.850;2022-09-03T05:43:55;53176.94;;;-146.41;49.80
62995;BME280;49086;52.300;4.850;2022-09-03T05:46:27;53240.75;;;-146.41;49.69
62995;BME280;49086;52.300;4.850;2022-09-03T05:49:06;53196.88;;;-146.41;49.81
62995;BME280;49086;52.300;4.850;2022-09-03T05:51:34;53190.91;;;-146.41;49.99
62995;BME280;49086;52.300;4.850;2022-09-03T05:54:00;53165.00;;;-146.41;49.77
62995;BME280;49086;52.300;4.850;2022-09-03T05:56:28;53218.81;;;-146.41;50.05
62995;BME280;49086;52.300;4.850;2022-09-03T05:58:59;53178.94;;;-146.41;49.91
62995;BME280;49086;52.300;4.850;2022-09-03T06:01:30;53210.84;;;-146.41;49.83
62995;BME280;49086;52.300;4.850;2022-09-03T06:04:04;53182.94;;;-146.41;49.88
62995;BME280;49086;52.300;4.850;2022-09-03T06:06:33;53194.88;;;-146.41;49.87
62995;BME280;49086;52.300;4.850;2022-09-03T06:09:15;53198.88;;;-146.41;49.91
62995;BME280;49086;52.300;4.850;2022-09-03T06:11:44;53167.00;;;-146.41;49.72
62995;BME280;49086;52.300;4.850;2022-09-03T06:14:13;53163.00;;;-146.41;49.82
62995;BME280;49086;52.300;4.850;2022-09-03T06:16:46;53200.88;;;-146.41;50.20
62995;BME280;49086;52.300;4.850;2022-09-03T06:19:17;53188.91;;;-146.41;49.61
62995;BME280;49086;52.300;4.850;2022-09-03T06:21:44;53202.88;;;-146.41;49.73
62995;BME280;49086;52.300;4.850;2022-09-03T06:24:16;53218.81;;;-146.41;49.73
62995;BME280;49086;52.300;4.850;2022-09-03T06:26:43;53180.94;;;-146.41;49.89
62995;BME280;49086;52.300;4.850;2022-09-03T06:29:09;53224.78;;;-146.41;49.94
62995;BME280;49086;52.300;4.850;2022-09-03T06:31:35;53198.88;;;-146.41;50.00
62995;BME280;49086;52.300;4.850;2022-09-03T06:34:01;53212.84;;;-146.41;49.77
62995;BME280;49086;52.300;4.850;2022-09-03T06:36:29;53157.03;;;-146.41;50.06
62995;BME280;49086;52.300;4.850;2022-09-03T06:38:55;53210.84;;;-146.41;50.00
62995;BME280;49086;52.300;4.850;2022-09-03T06:41:49;53174.97;;;-146.41;50.47
62995;BME280;49086;52.300;4.850;2022-09-03T06:44:16;53180.94;;;-146.41;50.24
62995;BME280;49086;52.300;4.850;2022-09-03T06:46:42;53163.00;;;-146.41;49.84
62995;BME280;49086;52.300;4.850;2022-09-03T06:49:08;53214.81;;;-146.41;49.42
62995;BME280;49086;52.300;4.850;2022-09-03T06:51:35;53186.91;;;-146.41;49.26
62995;BME280;49086;52.300;4.850;2022-09-03T06:54:06;53198.88;;;-146.41;48.96
62995;BME280;49086;52.300;4.850;2022-09-03T06:56:33;53151.03;;;-146.41;49.14
62995;BME280;49086;52.300;4.850;2022-09-03T06:59:06;53190.91;;;-146.41;48.69
62995;BME280;49086;52.300;4.850;2022-09-03T07:01:36;53167.00;;;-146.41;48.62
62995;BME280;49086;52.300;4.850;2022-09-03T07:04:06;53129.13;;;-146.41;48.47
62995;BME280;49086;52.300;4.850;2022-09-03T07:06:37;53143.06;;;-146.41;48.29
62995;BME280;49086;52.300;4.850;2022-09-03T07:09:09;53178.94;;;-146.41;48.22
62995;BME280;49086;52.300;4.850;2022-09-03T07:11:38;53137.09;;;-146.41;48.19
62995;BME280;49086;52.300;4.850;2022-09-03T07:14:16;53182.94;;;-146.41;47.91
62995;BME280;49086;52.300;4.850;2022-09-03T07:16:47;53184.94;;;-146.41;48.58
62995;BME280;49086;52.300;4.850;2022-09-03T07:19:17;53218.81;;;-146.41;48.00
62995;BME280;49086;52.300;4.850;2022-09-03T07:21:44;53167.00;;;-146.41;47.72
62995;BME280;49086;52.300;4.850;2022-09-03T07:24:14;53165.00;;;-146.41;47.93
62995;BME280;49086;52.300;4.850;2022-09-03T07:26:41;53149.03;;;-146.41;47.19
62995;BME280;49086;52.300;4.850;2022-09-03T07:29:23;53123.13;;;-146.41;47.05
62995;BME280;49086;52.300;4.850;2022-09-03T07:31:50;53168.97;;;-146.41;47.09
62995;BME280;49086;52.300;4.850;2022-09-03T07:34:17;53143.06;;;-146.41;46.48
62995;BME280;49086;52.300;4.850;2022-09-03T07:36:54;53172.97;;;-146.41;46.86
62995;BME280;49086;52.300;4.850;2022-09-03T07:39:41;53163.00;;;-146.41;46.20
62995;BME280;49086;52.300;4.850;2022-09-03T07:42:07;53137.09;;;-146.41;46.38
62995;BME280;49086;52.300;4.850;2022-09-03T07:44:39;53125.13;;;-146.41;46.79
62995;BME280;49086;52.300;4.850;2022-09-03T07:47:06;53119.16;;;-146.41;46.38
62995;BME280;49086;52.300;4.850;2022-09-03T07:49:34;53131.09;;;-146.41;46.21
62995;BME280;49086;52.300;4.850;2022-09-03T07:52:02;53165.00;;;-146.41;45.54
62995;BME280;49086;52.300;4.850;2022-09-03T07:54:28;53167.00;;;-146.41;45.97
62995;BME280;49086;52.300;4.850;2022-09-03T07:56:58;53174.97;;;-146.41;46.23
62995;BME280;49086;52.300;4.850;2022-09-03T07:59:35;53159.00;;;-146.41;45.60
62995;BME280;49086;52.300;4.850;2022-09-03T08:02:02;53153.03;;;-146.41;44.77
62995;BME280;49086;52.300;4.850;2022-09-03T08:04:38;53139.09;;;-146.41;45.08
62995;BME280;49086;52.300;4.850;2022-09-03T08:07:05;53131.09;;;-146.41;44.62
62995;BME280;49086;52.300;4.850;2022-09-03T08:09:38;53119.16;;;-146.41;44.61
62995;BME280;49086;52.300;4.850;2022-09-03T08:12:04;53127.13;;;-146.41;44.64
62995;BME280;49086;52.300;4.850;2022-09-03T08:14:56;53127.13;;;-146.41;44.26
62995;BME280;49086;52.300;4.850;2022-09-03T08:17:44;53168.97;;;-146.41;44.04
62995;BME280;49086;52.300;4.850;2022-09-03T08:21:03;53123.13;;;-146.41;44.05
62995;BME280;49086;52.300;4.850;2022-09-03T08:23:55;53129.13;;;-146.41;43.69
62995;BME280;49086;52.300;4.850;2022-09-03T08:27:49;53107.19;;;-146.41;43.51
62995;BME280;49086;52.300;4.850;2022-09-03T08:30:55;53079.28;;;-146.41;43.47
62995;BME280;49086;52.300;4.850;2022-09-03T08:33:54;53083.28;;;-146.41;43.52
62995;BME280;49086;52.300;4.850;2022-09-03T08:37:23;53095.22;;;-146.41;43.14
62995;BME280;49086;52.300;4.850;2022-09-03T08:43:22;53115.16;;;-146.41;43.23
62995;BME280;49086;52.300;4.850;2022-09-03T08:47:25;53099.22;;;-146.41;42.56
62995;BME280;49086;52.300;4.850;2022-09-03T08:52:51;53079.28;;;-146.41;42.64
62995;BME280;49086;52.300;4.850;2022-09-03T08:58:01;53083.28;;;-146.41;42.27
62995;BME280;49086;52.300;4.850;2022-09-03T09:01:09;53077.28;;;-146.41;42.28
62995;BME280;49086;52.300;4.850;2022-09-03T09:04:36;53065.34;;;-146.41;41.62
62995;BME280;49086;52.300;4.850;2022-09-03T09:07:16;53079.28;;;-146.41;41.89
62995;BME280;49086;52.300;4.850;2022-09-03T09:10:04;53063.34;;;-146.41;40.92
62995;BME280;49086;52.300;4.850;2022-09-03T09:15:11;53067.31;;;-146.41;41.98
62995;BME280;49086;52.300;4.850;2022-09-03T09:17:49;53055.38;;;-146.41;40.52
62995;BME280;49086;52.300;4.850;2022-09-03T09:20:42;53033.44;;;-146.41;40.73
62995;BME280;49086;52.300;4.850;2022-09-03T09:23:26;53083.28;;;-146.41;40.19
62995;BME280;49086;52.300;4.850;2022-09-03T09:26:12;53019.50;;;-146.41;40.13
62995;BME280;49086;52.300;4.850;2022-09-03T09:28:42;53023.47;;;-146.41;39.92
62995;BME280;49086;52.300;4.850;2022-09-03T09:31:18;53049.38;;;-146.41;39.24
62995;BME280;49086;52.300;4.850;2022-09-03T09:34:00;53015.50;;;-146.41;38.86
62995;BME280;49086;52.300;4.850;2022-09-03T09:36:31;53043.41;;;-146.41;39.12
62995;BME280;49086;52.300;4.850;2022-09-03T09:39:10;53051.38;;;-146.41;38.65
62995;BME280;49086;52.300;4.850;2022-09-03T09:41:38;53037.44;;;-146.41;38.72
62995;BME280;49086;52.300;4.850;2022-09-03T09:44:28;53033.44;;;-146.41;38.04
62995;BME280;49086;52.300;4.850;2022-09-03T09:47:24;53027.47;;;-146.41;37.66
62995;BME280;49086;52.300;4.850;2022-09-03T09:50:13;53031.44;;;-146.41;37.77
62995;BME280;49086;52.300;4.850;2022-09-03T09:52:44;52989.59;;;-146.41;37.69
62995;BME280;49086;52.300;4.850;2022-09-03T09:55:54;53031.44;;;-146.41;37.28
62995;BME280;49086;52.300;4.850;2022-09-03T09:58:30;53037.44;;;-146.41;37.22
62995;BME280;49086;52.300;4.850;2022-09-03T10:04:31;52997.56;;;-146.41;36.78
62995;BME280;49086;52.300;4.850;2022-09-03T10:07:31;52985.59;;;-146.41;36.97
62995;BME280;49086;52.300;4.850;2022-09-03T10:10:23;52987.59;;;-146.41;36.34
62995;BME280;49086;52.300;4.850;2022-09-03T10:13:09;52963.69;;;-146.41;36.00
62995;BME280;49086;52.300;4.850;2022-09-03T10:16:12;52975.63;;;-146.41;35.76
62995;BME280;49086;52.300;4.850;2022-09-03T10:19:27;52979.63;;;-146.41;36.67
62995;BME280;49086;52.300;4.850;2022-09-03T10:22:18;52995.56;;;-146.41;35.94
62995;BME280;49086;52.300;4.850;2022-09-03T10:25:07;52983.63;;;-146.41;35.81
62995;BME280;49086;52.300;4.850;2022-09-03T10:28:16;52939.75;;;-146.41;34.98
62995;BME280;49086;52.300;4.850;2022-09-03T10:33:31;52985.59;;;-146.41;35.01
62995;BME280;49086;52.300;4.850;2022-09-03T10:42:31;52965.66;;;-146.41;34.01
62995;BME280;49086;52.300;4.850;2022-09-03T10:51:48;52931.78;;;-146.41;33.51
62995;BME280;49086;52.300;4.850;2022-09-03T10:54:57;52931.78;;;-146.41;33.22
62995;BME280;49086;52.300;4.850;2022-09-03T10:58:07;52931.78;;;-146.41;32.72
62995;BME280;49086;52.300;4.850;2022-09-03T11:00:52;52919.84;;;-146.41;32.78
62995;BME280;49086;52.300;4.850;2022-09-03T11:06:53;52893.91;;;-146.41;32.38
62995;BME280;49086;52.300;4.850;2022-09-03T11:13:32;52895.91;;;-146.41;32.02
62995;BME280;49086;52.300;4.850;2022-09-03T11:16:38;52883.97;;;-146.41;31.79
62995;BME280;49086;52.300;4.850;2022-09-03T11:19:50;52913.84;;;-146.41;32.33
62995;BME280;49086;52.300;4.850;2022-09-03T11:22:21;52883.97;;;-146.41;31.37
62995;BME280;49086;52.300;4.850;2022-09-03T11:25:11;52887.94;;;-146.41;31.50
62995;BME280;49086;52.300;4.850;2022-09-03T11:31:54;52877.97;;;-146.41;31.22
62995;BME280;49086;52.300;4.850;2022-09-03T11:34:54;52903.88;;;-146.41;31.00
62995;BME280;49086;52.300;4.850;2022-09-03T11:38:03;52866.03;;;-146.41;30.59
62995;BME280;49086;52.300;4.850;2022-09-03T11:44:18;52864.03;;;-146.41;30.45
62995;BME280;49086;52.300;4.850;2022-09-03T11:47:41;52868.00;;;-146.41;30.66
62995;BME280;49086;52.300;4.850;2022-09-03T11:50:31;52893.91;;;-146.41;30.33
62995;BME280;49086;52.300;4.850;2022-09-03T11:53:52;52856.06;;;-146.41;30.73
62995;BME280;49086;52.300;4.850;2022-09-03T12:00:11;52850.06;;;-146.41;30.07
62995;BME280;49086;52.300;4.850;2022-09-03T12:03:05;52814.19;;;-146.41;30.10
62995;BME280;49086;52.300;4.850;2022-09-03T12:12:18;52844.09;;;-146.41;29.13
62995;BME280;49086;52.300;4.850;2022-09-03T12:17:52;52889.94;;;-146.41;29.61
62995;BME280;49086;52.300;4.850;2022-09-03T12:20:40;52874.00;;;-146.41;29.15
62995;BME280;49086;52.300;4.850;2022-09-03T12:23:26;52875.97;;;-146.41;29.22
62995;BME280;49086;52.300;4.850;2022-09-03T12:25:59;52852.06;;;-146.41;29.32
62995;BME280;49086;52.300;4.850;2022-09-03T12:28:33;52877.97;;;-146.41;29.68
62995;BME280;49086;52.300;4.850;2022-09-03T12:31:25;52860.03;;;-146.41;30.23
62995;BME280;49086;52.300;4.850;2022-09-03T12:34:11;52860.03;;;-146.41;29.31
62995;BME280;49086;52.300;4.850;2022-09-03T12:36:50;52885.94;;;-146.41;29.37
62995;BME280;49086;52.300;4.850;2022-09-03T12:39:30;52838.13;;;-146.41;29.42
62995;BME280;49086;52.300;4.850;2022-09-03T12:42:11;52852.06;;;-146.41;29.40
62995;BME280;49086;52.300;4.850;2022-09-03T12:45:06;52852.06;;;-146.41;29.19
62995;BME280;49086;52.300;4.850;2022-09-03T12:47:39;52872.00;;;-146.41;28.97
62995;BME280;49086;52.300;4.850;2022-09-03T12:50:12;52834.13;;;-146.41;29.03
62995;BME280;49086;52.300;4.850;2022-09-03T12:53:11;52866.03;;;-146.41;29.19
62995;BME280;49086;52.300;4.850;2022-09-03T12:55:47;52840.09;;;-146.41;28.81
62995;BME280;49086;52.300;4.850;2022-09-03T12:58:31;52840.09;;;-146.41;28.97
62995;BME280;49086;52.300;4.850;2022-09-03T13:01:17;52852.06;;;-146.41;29.35
62995;BME280;49086;52.300;4.850;2022-09-03T13:04:25;52852.06;;;-146.41;29.02
62995;BME280;49086;52.300;4.850;2022-09-03T13:07:35;52846.09;;;-146.41;28.12
62995;BME280;49086;52.300;4.850;2022-09-03T13:10:26;52872.00;;;-146.41;28.59
62995;BME280;49086;52.300;4.850;2022-09-03T13:13:36;52848.09;;;-146.41;28.01
62995;BME280;49086;52.300;4.850;2022-09-03T13:23:23;52836.13;;;-146.41;27.96
62995;BME280;49086;52.300;4.850;2022-09-03T13:26:07;52846.09;;;-146.41;28.70
62995;BME280;49086;52.300;4.850;2022-09-03T13:41:13;52824.16;;;-146.41;28.37
62995;BME280;49086;52.300;4.850;2022-09-03T13:44:07;52812.22;;;-146.41;27.75
62995;BME280;49086;52.300;4.850;2022-09-03T13:50:09;52820.19;;;-146.41;27.91
62995;BME280;49086;52.300;4.850;2022-09-03T14:12:38;52798.25;;;-146.41;27.91
62995;BME280;49086;52.300;4.850;2022-09-03T14:21:54;52784.31;;;-146.41;28.28
62995;BME280;49086;52.300;4.850;2022-09-03T14:27:43;52798.25;;;-146.41;28.10
62995;BME280;49086;52.300;4.850;2022-09-03T14:30:39;52804.22;;;-146.41;28.12
62995;BME280;49086;52.300;4.850;2022-09-03T14:51:51;52802.25;;;-146.41;27.15
62995;BME280;49086;52.300;4.850;2022-09-03T15:00:52;52802.25;;;-146.41;27.26
62995;BME280;49086;52.300;4.850;2022-09-03T15:12:43;52756.41;;;-146.41;27.51
62995;BME280;49086;52.300;4.850;2022-09-03T15:15:19;52768.34;;;-146.41;27.97
62995;BME280;49086;52.300;4.850;2022-09-03T15:27:42;52840.09;;;-146.41;26.93
62995;BME280;49086;52.300;4.850;2022-09-03T15:30:22;52796.25;;;-146.41;27.16
62995;BME280;49086;52.300;4.850;2022-09-03T15:33:22;52788.28;;;-146.41;27.79
62995;BME280;49086;52.300;4.850;2022-09-03T15:36:17;52782.31;;;-146.41;27.18
62995;BME280;49086;52.300;4.850;2022-09-03T15:39:04;52768.34;;;-146.41;27.22
62995;BME280;49086;52.300;4.850;2022-09-03T15:41:58;52752.41;;;-146.41;26.65
62995;BME280;49086;52.300;4.850;2022-09-03T15:44:33;52758.38;;;-146.41;26.46
62995;BME280;49086;52.300;4.850;2022-09-03T15:47:07;52748.44;;;-146.41;25.83
62995;BME280;49086;52.300;4.850;2022-09-03T15:50:09;52740.47;;;-146.41;25.73
62995;BME280;49086;52.300;4.850;2022-09-03T15:53:01;52756.41;;;-146.41;27.32
62995;BME280;49086;52.300;4.850;2022-09-03T15:55:41;52756.41;;;-146.41;26.19
62995;BME280;49086;52.300;4.850;2022-09-03T15:58:24;52734.47;;;-146.41;26.49
62995;BME280;49086;52.300;4.850;2022-09-03T16:01:44;52758.38;;;-146.41;26.86
62995;BME280;49086;52.300;4.850;2022-09-03T16:04:30;52760.38;;;-146.41;25.57
62995;BME280;49086;52.300;4.850;2022-09-03T16:07:47;52710.56;;;-146.41;25.56
62995;BME280;49086;52.300;4.850;2022-09-03T16:14:17;52728.50;;;-146.41;25.37
62995;BME280;49086;52.300;4.850;2022-09-03T16:17:30;52724.50;;;-146.41;25.95
62995;BME280;49086;52.300;4.850;2022-09-03T16:20:13;52750.41;;;-146.41;25.83
62995;BME280;49086;52.300;4.850;2022-09-03T16:22:53;52706.56;;;-146.41;25.93
62995;BME280;49086;52.300;4.850;2022-09-03T16:26:07;52768.34;;;-146.41;26.08
62995;BME280;49086;52.300;4.850;2022-09-03T16:29:05;52756.41;;;-146.41;25.87
62995;BME280;49086;52.300;4.850;2022-09-03T16:40:27;52720.53;;;-146.41;25.83
62995;BME280;49086;52.300;4.850;2022-09-03T16:43:22;52732.47;;;-146.41;26.64
62995;BME280;49086;52.300;4.850;2022-09-03T16:51:42;52726.50;;;-146.41;26.89
62995;BME280;49086;52.300;4.850;2022-09-03T17:00:42;52692.63;;;-146.41;25.48
62995;BME280;49086;52.300;4.850;2022-09-03T17:06:32;52744.44;;;-146.41;26.42
62995;BME280;49086;52.300;4.850;2022-09-03T17:12:24;52770.34;;;-146.41;26.73
62995;BME280;49086;52.300;4.850;2022-09-03T17:18:15;52760.38;;;-146.41;25.95
62995;BME280;49086;52.300;4.850;2022-09-03T17:24:26;52802.25;;;-146.41;26.57
62995;BME280;49086;52.300;4.850;2022-09-03T17:30:05;52822.16;;;-146.41;28.08
62995;BME280;49086;52.300;4.850;2022-09-03T17:33:24;52877.97;;;-146.41;29.27
62995;BME280;49086;52.300;4.850;2022-09-03T17:45:12;52957.69;;;-146.41;30.97
62995;BME280;49086;52.300;4.850;2022-09-03T17:54:39;52967.66;;;-146.41;32.14
62995;BME280;49086;52.300;4.850;2022-09-03T17:57:30;52973.66;;;-146.41;32.59
62995;BME280;49086;52.300;4.850;2022-09-03T18:00:11;52941.75;;;-146.41;33.89
62995;BME280;49086;52.300;4.850;2022-09-03T18:05:45;53015.50;;;-146.41;33.47
62995;BME280;49086;52.300;4.850;2022-09-03T18:08:45;53013.50;;;-146.41;34.11
62995;BME280;49086;52.300;4.850;2022-09-03T18:11:38;53003.53;;;-146.41;34.22
62995;BME280;49086;52.300;4.850;2022-09-03T18:14:33;53021.47;;;-146.41;35.09
62995;BME280;49086;52.300;4.850;2022-09-03T18:17:04;52999.56;;;-146.41;35.31